Hovedside
METAR-TAF:

METAR-TAF

Lufthavner :

Bodø lufthavn

Bodø, Norge

breddegrad: 67-16N, lengdegrad: 014-22E, høyde over havet: 1 m

Gjeldene værobservasjon

Denne rapporten ble laget for 35 minutter siden, klokken 06:50 UTC
Vind 17 kt fra Øst
Temperatur -3°C
Luftfuktighet 68%
Trykk 1017 hPa
Sikt 10 km eller mer
Få skyer i en høyde av 3000 ft

METAR: ENBO 090650Z 08017KT 9999 FEW030 M03/M08 Q1017 NOSIG

Tid: 08:25 (07:25 UTC)

Varsel

Varsel gyldig fra 09. klokken 06 UTC til 10. klokken 06 UTC
Vind 15 kt fra Øst
Sikt 10 km eller mer
ingen skyer under 1500 m og ingen bygeskyer

TAF: ENBO 0906/1006 09015KT CAVOK

Værobservasjoner og værvarsel for over 4000 flyplasser (METAR- og TAF-rapporter).

Tilgjengelige stasjoner er representert av de røde og gule prikkene på kartet.

Hold musepekeren over prikken for å se navnet på stasjonen.

Klikk så for å se værobservasjoner og -varsler.

For å forandre kartet kan du klikke på den grønne knappen med svart kryss for å zoome inn, på den grønne knappen med strek for å zoome ut, eller på de grønne pilene for å se tilstøtende kart.


METAR-TAF: